sensor_id;sensor_type;location;lat;lon;timestamp;P1;durP1;ratioP1;P2;durP2;ratioP2
48263;SDS011;34086;51.076;13.722;2022-09-09T00:00:16;5.07;;;3.63;;
48263;SDS011;34086;51.076;13.722;2022-09-09T00:02:49;5.97;;;3.35;;
48263;SDS011;34086;51.076;13.722;2022-09-09T00:06:04;4.38;;;3.40;;
48263;SDS011;34086;51.076;13.722;2022-09-09T00:07:47;4.25;;;3.13;;
48263;SDS011;34086;51.076;13.722;2022-09-09T00:11:20;3.38;;;2.80;;
48263;SDS011;34086;51.076;13.722;2022-09-09T00:12:38;4.65;;;3.00;;
48263;SDS011;34086;51.076;13.722;2022-09-09T00:13:57;3.70;;;2.80;;
48263;SDS011;34086;51.076;13.722;2022-09-09T00:16:19;3.53;;;2.88;;
48263;SDS011;34086;51.076;13.722;2022-09-09T00:19:06;4.43;;;3.20;;
48263;SDS011;34086;51.076;13.722;2022-09-09T00:20:21;3.22;;;2.70;;
48263;SDS011;34086;51.076;13.722;2022-09-09T00:21:33;3.83;;;3.05;;
48263;SDS011;34086;51.076;13.722;2022-09-09T00:22:35;4.95;;;3.00;;
48263;SDS011;34086;51.076;13.722;2022-09-09T00:23:53;4.30;;;2.97;;
48263;SDS011;34086;51.076;13.722;2022-09-09T00:25:02;3.70;;;3.17;;
48263;SDS011;34086;51.076;13.722;2022-09-09T00:26:18;3.85;;;3.03;;
48263;SDS011;34086;51.076;13.722;2022-09-09T00:27:43;4.03;;;3.05;;
48263;SDS011;34086;51.076;13.722;2022-09-09T00:28:48;3.53;;;2.75;;
48263;SDS011;34086;51.076;13.722;2022-09-09T00:31:18;3.53;;;3.13;;
48263;SDS011;34086;51.076;13.722;2022-09-09T00:32:27;4.07;;;3.05;;
48263;SDS011;34086;51.076;13.722;2022-09-09T00:33:30;4.43;;;3.25;;
48263;SDS011;34086;51.076;13.722;2022-09-09T00:34:31;4.18;;;3.10;;
48263;SDS011;34086;51.076;13.722;2022-09-09T00:35:40;4.50;;;3.30;;
48263;SDS011;34086;51.076;13.722;2022-09-09T00:36:44;5.72;;;3.25;;
48263;SDS011;34086;51.076;13.722;2022-09-09T00:37:49;4.07;;;3.13;;
48263;SDS011;34086;51.076;13.722;2022-09-09T00:38:55;3.80;;;3.30;;
48263;SDS011;34086;51.076;13.722;2022-09-09T00:40:00;5.60;;;3.28;;
48263;SDS011;34086;51.076;13.722;2022-09-09T00:41:32;5.00;;;3.40;;
48263;SDS011;34086;51.076;13.722;2022-09-09T00:42:47;4.50;;;3.50;;
48263;SDS011;34086;51.076;13.722;2022-09-09T00:44:26;3.92;;;3.10;;
48263;SDS011;34086;51.076;13.722;2022-09-09T00:45:45;3.58;;;3.28;;
48263;SDS011;34086;51.076;13.722;2022-09-09T00:46:56;4.00;;;3.50;;
48263;SDS011;34086;51.076;13.722;2022-09-09T00:48:06;3.85;;;3.20;;
48263;SDS011;34086;51.076;13.722;2022-09-09T00:49:18;4.70;;;3.33;;
48263;SDS011;34086;51.076;13.722;2022-09-09T00:50:57;3.75;;;3.22;;
48263;SDS011;34086;51.076;13.722;2022-09-09T00:52:23;4.25;;;3.10;;
48263;SDS011;34086;51.076;13.722;2022-09-09T00:53:56;4.78;;;3.22;;
48263;SDS011;34086;51.076;13.722;2022-09-09T00:56:35;4.60;;;3.33;;
48263;SDS011;34086;51.076;13.722;2022-09-09T00:57:42;5.28;;;3.50;;
48263;SDS011;34086;51.076;13.722;2022-09-09T00:58:58;4.90;;;3.35;;
48263;SDS011;34086;51.076;13.722;2022-09-09T01:00:29;4.88;;;3.20;;
48263;SDS011;34086;51.076;13.722;2022-09-09T01:01:33;3.92;;;3.25;;
48263;SDS011;34086;51.076;13.722;2022-09-09T01:02:45;4.35;;;3.30;;
48263;SDS011;34086;51.076;13.722;2022-09-09T01:03:53;4.05;;;3.05;;
48263;SDS011;34086;51.076;13.722;2022-09-09T01:04:57;5.95;;;3.80;;
48263;SDS011;34086;51.076;13.722;2022-09-09T01:06:19;5.03;;;3.30;;
48263;SDS011;34086;51.076;13.722;2022-09-09T01:07:32;4.43;;;3.30;;
48263;SDS011;34086;51.076;13.722;2022-09-09T01:09:50;4.40;;;3.20;;
48263;SDS011;34086;51.076;13.722;2022-09-09T01:10:56;5.13;;;3.28;;
48263;SDS011;34086;51.076;13.722;2022-09-09T01:12:02;4.18;;;3.45;;
48263;SDS011;34086;51.076;13.722;2022-09-09T01:13:30;5.22;;;3.25;;
48263;SDS011;34086;51.076;13.722;2022-09-09T01:14:45;5.13;;;3.58;;
48263;SDS011;34086;51.076;13.722;2022-09-09T01:15:51;5.28;;;3.30;;
48263;SDS011;34086;51.076;13.722;2022-09-09T01:16:55;5.00;;;3.30;;
48263;SDS011;34086;51.076;13.722;2022-09-09T01:18:08;4.13;;;3.22;;
48263;SDS011;34086;51.076;13.722;2022-09-09T01:19:20;3.83;;;3.10;;
48263;SDS011;34086;51.076;13.722;2022-09-09T01:26:42;4.38;;;3.30;;
48263;SDS011;34086;51.076;13.722;2022-09-09T01:28:08;4.47;;;3.58;;
48263;SDS011;34086;51.076;13.722;2022-09-09T01:29:26;5.07;;;3.60;;
48263;SDS011;34086;51.076;13.722;2022-09-09T01:30:28;4.18;;;3.10;;
48263;SDS011;34086;51.076;13.722;2022-09-09T01:31:31;3.75;;;3.08;;
48263;SDS011;34086;51.076;13.722;2022-09-09T01:33:42;4.07;;;3.15;;
48263;SDS011;34086;51.076;13.722;2022-09-09T01:34:43;5.13;;;2.85;;
48263;SDS011;34086;51.076;13.722;2022-09-09T01:35:46;5.15;;;2.85;;
48263;SDS011;34086;51.076;13.722;2022-09-09T01:37:02;5.38;;;3.03;;
48263;SDS011;34086;51.076;13.722;2022-09-09T01:38:05;3.50;;;2.90;;
48263;SDS011;34086;51.076;13.722;2022-09-09T01:39:08;3.03;;;2.70;;
48263;SDS011;34086;51.076;13.722;2022-09-09T01:40:10;3.15;;;2.85;;
48263;SDS011;34086;51.076;13.722;2022-09-09T01:41:12;3.08;;;2.78;;
48263;SDS011;34086;51.076;13.722;2022-09-09T01:42:28;3.35;;;2.78;;
48263;SDS011;34086;51.076;13.722;2022-09-09T01:43:29;3.50;;;2.35;;
48263;SDS011;34086;51.076;13.722;2022-09-09T01:44:30;3.08;;;2.78;;
48263;SDS011;34086;51.076;13.722;2022-09-09T01:47:47;4.72;;;2.97;;
48263;SDS011;34086;51.076;13.722;2022-09-09T01:48:55;3.20;;;2.83;;
48263;SDS011;34086;51.076;13.722;2022-09-09T01:49:57;3.38;;;2.78;;
48263;SDS011;34086;51.076;13.722;2022-09-09T01:51:01;3.40;;;2.70;;
48263;SDS011;34086;51.076;13.722;2022-09-09T01:52:02;3.72;;;2.88;;
48263;SDS011;34086;51.076;13.722;2022-09-09T01:53:09;3.08;;;2.60;;
48263;SDS011;34086;51.076;13.722;2022-09-09T01:54:12;4.03;;;2.70;;
48263;SDS011;34086;51.076;13.722;2022-09-09T01:55:13;3.15;;;2.85;;
48263;SDS011;34086;51.076;13.722;2022-09-09T01:58:59;3.88;;;3.00;;
48263;SDS011;34086;51.076;13.722;2022-09-09T02:00:33;3.20;;;2.90;;
48263;SDS011;34086;51.076;13.722;2022-09-09T02:01:41;3.40;;;2.55;;
48263;SDS011;34086;51.076;13.722;2022-09-09T02:04:59;3.63;;;2.85;;
48263;SDS011;34086;51.076;13.722;2022-09-09T02:06:17;3.78;;;2.97;;
48263;SDS011;34086;51.076;13.722;2022-09-09T02:08:45;3.40;;;3.00;;
48263;SDS011;34086;51.076;13.722;2022-09-09T02:10:02;4.25;;;2.97;;
48263;SDS011;34086;51.076;13.722;2022-09-09T02:11:11;3.47;;;2.88;;
48263;SDS011;34086;51.076;13.722;2022-09-09T02:12:39;3.63;;;2.88;;
48263;SDS011;34086;51.076;13.722;2022-09-09T02:13:46;3.20;;;2.90;;
48263;SDS011;34086;51.076;13.722;2022-09-09T02:14:51;3.28;;;2.70;;
48263;SDS011;34086;51.076;13.722;2022-09-09T02:17:08;3.00;;;2.70;;
48263;SDS011;34086;51.076;13.722;2022-09-09T02:20:32;4.80;;;2.78;;
48263;SDS011;34086;51.076;13.722;2022-09-09T02:21:37;2.95;;;2.75;;
48263;SDS011;34086;51.076;13.722;2022-09-09T02:22:41;3.78;;;3.00;;
48263;SDS011;34086;51.076;13.722;2022-09-09T02:23:46;3.35;;;3.00;;
48263;SDS011;34086;51.076;13.722;2022-09-09T02:24:52;5.55;;;2.97;;
48263;SDS011;34086;51.076;13.722;2022-09-09T02:25:59;2.80;;;2.60;;
48263;SDS011;34086;51.076;13.722;2022-09-09T02:27:05;2.95;;;2.72;;
48263;SDS011;34086;51.076;13.722;2022-09-09T02:28:09;3.05;;;2.75;;
48263;SDS011;34086;51.076;13.722;2022-09-09T02:29:19;3.13;;;2.83;;
48263;SDS011;34086;51.076;13.722;2022-09-09T02:30:33;4.43;;;2.55;;
48263;SDS011;34086;51.076;13.722;2022-09-09T02:31:38;5.43;;;2.95;;
48263;SDS011;34086;51.076;13.722;2022-09-09T02:32:46;4.05;;;2.80;;
48263;SDS011;34086;51.076;13.722;2022-09-09T02:33:52;2.92;;;2.70;;
48263;SDS011;34086;51.076;13.722;2022-09-09T02:34:58;2.78;;;2.58;;
48263;SDS011;34086;51.076;13.722;2022-09-09T02:36:04;3.20;;;2.40;;
48263;SDS011;34086;51.076;13.722;2022-09-09T02:37:09;2.65;;;2.45;;
48263;SDS011;34086;51.076;13.722;2022-09-09T02:38:13;3.33;;;2.70;;
48263;SDS011;34086;51.076;13.722;2022-09-09T02:39:27;2.60;;;2.40;;
48263;SDS011;34086;51.076;13.722;2022-09-09T02:40:28;4.43;;;2.58;;
48263;SDS011;34086;51.076;13.722;2022-09-09T02:41:35;3.03;;;2.72;;
48263;SDS011;34086;51.076;13.722;2022-09-09T02:42:41;3.10;;;2.80;;
48263;SDS011;34086;51.076;13.722;2022-09-09T02:43:54;2.70;;;2.50;;
48263;SDS011;34086;51.076;13.722;2022-09-09T02:44:55;3.53;;;2.55;;
48263;SDS011;34086;51.076;13.722;2022-09-09T02:51:28;4.55;;;2.83;;
48263;SDS011;34086;51.076;13.722;2022-09-09T02:52:53;3.92;;;2.70;;
48263;SDS011;34086;51.076;13.722;2022-09-09T02:54:16;3.65;;;2.70;;
48263;SDS011;34086;51.076;13.722;2022-09-09T02:55:35;4.85;;;2.58;;
48263;SDS011;34086;51.076;13.722;2022-09-09T02:56:46;3.60;;;2.75;;
48263;SDS011;34086;51.076;13.722;2022-09-09T02:58:56;3.63;;;2.70;;
48263;SDS011;34086;51.076;13.722;2022-09-09T02:59:59;3.08;;;2.70;;
48263;SDS011;34086;51.076;13.722;2022-09-09T03:01:01;4.07;;;2.80;;
48263;SDS011;34086;51.076;13.722;2022-09-09T03:02:03;3.33;;;2.65;;
48263;SDS011;34086;51.076;13.722;2022-09-09T03:03:06;4.47;;;2.60;;
48263;SDS011;34086;51.076;13.722;2022-09-09T03:04:09;3.42;;;2.65;;
48263;SDS011;34086;51.076;13.722;2022-09-09T03:05:10;3.65;;;2.58;;
48263;SDS011;34086;51.076;13.722;2022-09-09T03:06:10;3.55;;;2.90;;
48263;SDS011;34086;51.076;13.722;2022-09-09T03:07:13;2.90;;;2.65;;
48263;SDS011;34086;51.076;13.722;2022-09-09T03:08:15;2.90;;;2.70;;
48263;SDS011;34086;51.076;13.722;2022-09-09T03:09:17;2.85;;;2.65;;
48263;SDS011;34086;51.076;13.722;2022-09-09T03:10:18;2.80;;;2.60;;
48263;SDS011;34086;51.076;13.722;2022-09-09T03:11:19;3.25;;;2.90;;
48263;SDS011;34086;51.076;13.722;2022-09-09T03:12:20;3.45;;;2.75;;
48263;SDS011;34086;51.076;13.722;2022-09-09T03:13:20;4.15;;;3.00;;
48263;SDS011;34086;51.076;13.722;2022-09-09T03:14:22;4.30;;;3.10;;
48263;SDS011;34086;51.076;13.722;2022-09-09T03:15:25;4.13;;;2.97;;
48263;SDS011;34086;51.076;13.722;2022-09-09T03:16:30;4.82;;;2.83;;
48263;SDS011;34086;51.076;13.722;2022-09-09T03:17:30;3.95;;;3.00;;
48263;SDS011;34086;51.076;13.722;2022-09-09T03:18:31;3.58;;;2.90;;
48263;SDS011;34086;51.076;13.722;2022-09-09T03:19:32;4.07;;;3.00;;
48263;SDS011;34086;51.076;13.722;2022-09-09T03:20:34;4.05;;;2.85;;
48263;SDS011;34086;51.076;13.722;2022-09-09T03:21:35;4.45;;;3.22;;
48263;SDS011;34086;51.076;13.722;2022-09-09T03:22:36;4.25;;;3.20;;
48263;SDS011;34086;51.076;13.722;2022-09-09T03:23:40;4.97;;;3.38;;
48263;SDS011;34086;51.076;13.722;2022-09-09T03:24:41;4.15;;;3.13;;
48263;SDS011;34086;51.076;13.722;2022-09-09T03:25:48;4.75;;;3.42;;
48263;SDS011;34086;51.076;13.722;2022-09-09T03:26:53;3.85;;;3.17;;
48263;SDS011;34086;51.076;13.722;2022-09-09T03:27:55;4.68;;;3.30;;
48263;SDS011;34086;51.076;13.722;2022-09-09T03:28:58;6.38;;;3.17;;
48263;SDS011;34086;51.076;13.722;2022-09-09T03:30:00;4.40;;;3.03;;
48263;SDS011;34086;51.076;13.722;2022-09-09T03:31:04;4.18;;;3.53;;
48263;SDS011;34086;51.076;13.722;2022-09-09T03:32:10;5.50;;;3.50;;
48263;SDS011;34086;51.076;13.722;2022-09-09T03:33:13;5.32;;;3.70;;
48263;SDS011;34086;51.076;13.722;2022-09-09T03:34:15;4.55;;;3.45;;
48263;SDS011;34086;51.076;13.722;2022-09-09T03:35:16;5.47;;;3.17;;
48263;SDS011;34086;51.076;13.722;2022-09-09T03:36:17;4.15;;;3.28;;
48263;SDS011;34086;51.076;13.722;2022-09-09T03:37:20;4.18;;;3.20;;
48263;SDS011;34086;51.076;13.722;2022-09-09T03:38:23;4.18;;;3.15;;
48263;SDS011;34086;51.076;13.722;2022-09-09T03:39:24;3.70;;;3.17;;
48263;SDS011;34086;51.076;13.722;2022-09-09T03:40:25;3.78;;;3.08;;
48263;SDS011;34086;51.076;13.722;2022-09-09T03:41:26;3.35;;;2.90;;
48263;SDS011;34086;51.076;13.722;2022-09-09T03:42:27;3.58;;;2.65;;
48263;SDS011;34086;51.076;13.722;2022-09-09T03:43:29;3.20;;;2.90;;
48263;SDS011;34086;51.076;13.722;2022-09-09T03:44:30;3.67;;;2.90;;
48263;SDS011;34086;51.076;13.722;2022-09-09T03:45:31;3.55;;;2.70;;
48263;SDS011;34086;51.076;13.722;2022-09-09T03:46:31;3.55;;;3.00;;
48263;SDS011;34086;51.076;13.722;2022-09-09T03:47:34;3.92;;;3.08;;
48263;SDS011;34086;51.076;13.722;2022-09-09T03:48:39;3.50;;;3.10;;
48263;SDS011;34086;51.076;13.722;2022-09-09T03:49:39;4.18;;;3.10;;
48263;SDS011;34086;51.076;13.722;2022-09-09T03:50:47;4.10;;;2.83;;
48263;SDS011;34086;51.076;13.722;2022-09-09T03:51:48;3.92;;;2.80;;
48263;SDS011;34086;51.076;13.722;2022-09-09T03:52:49;3.83;;;2.70;;
48263;SDS011;34086;51.076;13.722;2022-09-09T03:53:54;3.47;;;3.17;;
48263;SDS011;34086;51.076;13.722;2022-09-09T03:54:57;3.35;;;2.90;;
48263;SDS011;34086;51.076;13.722;2022-09-09T03:55:57;3.90;;;2.90;;
48263;SDS011;34086;51.076;13.722;2022-09-09T03:57:01;4.03;;;3.13;;
48263;SDS011;34086;51.076;13.722;2022-09-09T03:58:02;5.05;;;2.83;;
48263;SDS011;34086;51.076;13.722;2022-09-09T03:59:03;4.88;;;2.90;;
48263;SDS011;34086;51.076;13.722;2022-09-09T04:00:04;3.55;;;2.70;;
48263;SDS011;34086;51.076;13.722;2022-09-09T04:01:16;4.50;;;3.17;;
48263;SDS011;34086;51.076;13.722;2022-09-09T04:02:18;4.22;;;2.75;;
48263;SDS011;34086;51.076;13.722;2022-09-09T04:03:19;3.30;;;3.00;;
48263;SDS011;34086;51.076;13.722;2022-09-09T04:04:19;4.72;;;3.10;;
48263;SDS011;34086;51.076;13.722;2022-09-09T04:05:20;3.25;;;2.83;;
48263;SDS011;34086;51.076;13.722;2022-09-09T04:06:22;3.15;;;2.85;;
48263;SDS011;34086;51.076;13.722;2022-09-09T04:07:23;4.13;;;3.17;;
48263;SDS011;34086;51.076;13.722;2022-09-09T04:08:24;4.53;;;2.90;;
48263;SDS011;34086;51.076;13.722;2022-09-09T04:09:25;4.22;;;3.30;;
48263;SDS011;34086;51.076;13.722;2022-09-09T04:10:26;3.38;;;3.03;;
48263;SDS011;34086;51.076;13.722;2022-09-09T04:11:29;3.58;;;3.20;;
48263;SDS011;34086;51.076;13.722;2022-09-09T04:12:32;5.95;;;3.38;;
48263;SDS011;34086;51.076;13.722;2022-09-09T04:13:33;5.25;;;2.88;;
48263;SDS011;34086;51.076;13.722;2022-09-09T04:14:36;3.70;;;3.33;;
48263;SDS011;34086;51.076;13.722;2022-09-09T04:15:39;4.03;;;2.95;;
48263;SDS011;34086;51.076;13.722;2022-09-09T04:16:41;3.42;;;3.13;;
48263;SDS011;34086;51.076;13.722;2022-09-09T04:17:45;3.80;;;3.40;;
48263;SDS011;34086;51.076;13.722;2022-09-09T04:18:47;3.45;;;3.10;;
48263;SDS011;34086;51.076;13.722;2022-09-09T04:19:50;4.03;;;3.22;;
48263;SDS011;34086;51.076;13.722;2022-09-09T04:20:51;3.90;;;2.95;;
48263;SDS011;34086;51.076;13.722;2022-09-09T04:21:55;3.65;;;3.30;;
48263;SDS011;34086;51.076;13.722;2022-09-09T04:22:56;3.42;;;3.08;;
48263;SDS011;34086;51.076;13.722;2022-09-09T04:23:57;3.30;;;3.00;;
48263;SDS011;34086;51.076;13.722;2022-09-09T04:24:59;3.33;;;3.03;;
48263;SDS011;34086;51.076;13.722;2022-09-09T04:26:02;6.38;;;3.25;;
48263;SDS011;34086;51.076;13.722;2022-09-09T04:27:05;4.35;;;3.30;;
48263;SDS011;34086;51.076;13.722;2022-09-09T04:28:08;6.05;;;3.45;;
48263;SDS011;34086;51.076;13.722;2022-09-09T04:29:09;4.25;;;3.25;;
48263;SDS011;34086;51.076;13.722;2022-09-09T04:30:10;4.90;;;3.40;;
48263;SDS011;34086;51.076;13.722;2022-09-09T04:31:17;5.07;;;3.40;;
48263;SDS011;34086;51.076;13.722;2022-09-09T04:32:21;4.43;;;3.30;;
48263;SDS011;34086;51.076;13.722;2022-09-09T04:33:24;4.20;;;3.28;;
48263;SDS011;34086;51.076;13.722;2022-09-09T04:34:28;4.00;;;3.00;;
48263;SDS011;34086;51.076;13.722;2022-09-09T04:35:29;3.72;;;3.28;;
48263;SDS011;34086;51.076;13.722;2022-09-09T04:36:31;3.83;;;3.20;;
48263;SDS011;34086;51.076;13.722;2022-09-09T04:37:34;6.30;;;3.38;;
48263;SDS011;34086;51.076;13.722;2022-09-09T04:38:35;3.95;;;3.55;;
48263;SDS011;34086;51.076;13.722;2022-09-09T04:39:37;4.35;;;3.55;;
48263;SDS011;34086;51.076;13.722;2022-09-09T04:40:38;4.22;;;3.50;;
48263;SDS011;34086;51.076;13.722;2022-09-09T04:41:42;3.92;;;2.85;;
48263;SDS011;34086;51.076;13.722;2022-09-09T04:42:44;7.15;;;3.30;;
48263;SDS011;34086;51.076;13.722;2022-09-09T04:43:47;5.30;;;3.50;;
48263;SDS011;34086;51.076;13.722;2022-09-09T04:45:07;5.05;;;3.30;;
48263;SDS011;34086;51.076;13.722;2022-09-09T04:46:11;6.13;;;3.20;;
48263;SDS011;34086;51.076;13.722;2022-09-09T04:47:12;3.72;;;3.33;;
48263;SDS011;34086;51.076;13.722;2022-09-09T04:48:14;3.38;;;3.03;;
48263;SDS011;34086;51.076;13.722;2022-09-09T04:49:15;4.25;;;3.10;;
48263;SDS011;34086;51.076;13.722;2022-09-09T04:50:17;4.63;;;3.40;;
48263;SDS011;34086;51.076;13.722;2022-09-09T04:51:20;4.53;;;3.40;;
48263;SDS011;34086;51.076;13.722;2022-09-09T04:52:23;4.15;;;3.30;;
48263;SDS011;34086;51.076;13.722;2022-09-09T04:53:23;4.03;;;3.15;;
48263;SDS011;34086;51.076;13.722;2022-09-09T04:54:26;4.25;;;2.92;;
48263;SDS011;34086;51.076;13.722;2022-09-09T04:55:28;3.58;;;3.25;;
48263;SDS011;34086;51.076;13.722;2022-09-09T04:56:29;3.47;;;3.15;;
48263;SDS011;34086;51.076;13.722;2022-09-09T04:57:31;3.55;;;3.22;;
48263;SDS011;34086;51.076;13.722;2022-09-09T04:58:33;8.45;;;3.60;;
48263;SDS011;34086;51.076;13.722;2022-09-09T04:59:34;3.50;;;3.20;;
48263;SDS011;34086;51.076;13.722;2022-09-09T05:00:37;4.53;;;3.45;;
48263;SDS011;34086;51.076;13.722;2022-09-09T05:01:40;3.95;;;3.13;;
48263;SDS011;34086;51.076;13.722;2022-09-09T05:02:41;4.50;;;3.30;;
48263;SDS011;34086;51.076;13.722;2022-09-09T05:03:42;4.60;;;3.38;;
48263;SDS011;34086;51.076;13.722;2022-09-09T05:04:46;4.70;;;3.40;;
48263;SDS011;34086;51.076;13.722;2022-09-09T05:05:47;3.78;;;3.20;;
48263;SDS011;34086;51.076;13.722;2022-09-09T05:06:49;3.95;;;3.40;;
48263;SDS011;34086;51.076;13.722;2022-09-09T05:07:50;4.25;;;3.42;;
48263;SDS011;34086;51.076;13.722;2022-09-09T05:08:51;5.03;;;3.25;;
48263;SDS011;34086;51.076;13.722;2022-09-09T05:09:56;3.45;;;3.15;;
48263;SDS011;34086;51.076;13.722;2022-09-09T05:10:57;4.43;;;3.20;;
48263;SDS011;34086;51.076;13.722;2022-09-09T05:11:59;3.70;;;3.10;;
48263;SDS011;34086;51.076;13.722;2022-09-09T05:13:04;6.05;;;3.45;;
48263;SDS011;34086;51.076;13.722;2022-09-09T05:14:06;3.35;;;2.90;;
48263;SDS011;34086;51.076;13.722;2022-09-09T05:15:08;3.50;;;3.03;;
48263;SDS011;34086;51.076;13.722;2022-09-09T05:16:10;3.47;;;2.75;;
48263;SDS011;34086;51.076;13.722;2022-09-09T05:17:11;3.95;;;2.90;;
48263;SDS011;34086;51.076;13.722;2022-09-09T05:18:13;3.90;;;3.00;;
48263;SDS011;34086;51.076;13.722;2022-09-09T05:19:14;3.40;;;2.80;;
48263;SDS011;34086;51.076;13.722;2022-09-09T05:20:18;3.03;;;2.65;;
48263;SDS011;34086;51.076;13.722;2022-09-09T05:21:19;4.47;;;2.83;;
48263;SDS011;34086;51.076;13.722;2022-09-09T05:22:23;4.88;;;2.92;;
48263;SDS011;34086;51.076;13.722;2022-09-09T05:23:25;5.38;;;2.70;;
48263;SDS011;34086;51.076;13.722;2022-09-09T05:24:26;5.45;;;3.45;;
48263;SDS011;34086;51.076;13.722;2022-09-09T05:25:30;3.42;;;3.13;;
48263;SDS011;34086;51.076;13.722;2022-09-09T05:26:31;4.55;;;3.03;;
48263;SDS011;34086;51.076;13.722;2022-09-09T05:27:35;5.45;;;3.22;;
48263;SDS011;34086;51.076;13.722;2022-09-09T05:28:36;3.75;;;2.97;;
48263;SDS011;34086;51.076;13.722;2022-09-09T05:29:37;8.07;;;3.20;;
48263;SDS011;34086;51.076;13.722;2022-09-09T05:30:40;4.35;;;3.00;;
48263;SDS011;34086;51.076;13.722;2022-09-09T05:31:41;6.32;;;3.20;;
48263;SDS011;34086;51.076;13.722;2022-09-09T05:32:46;4.32;;;3.13;;
48263;SDS011;34086;51.076;13.722;2022-09-09T05:33:48;6.03;;;3.58;;
48263;SDS011;34086;51.076;13.722;2022-09-09T05:34:49;4.07;;;3.00;;
48263;SDS011;34086;51.076;13.722;2022-09-09T05:37:05;4.85;;;3.22;;
48263;SDS011;34086;51.076;13.722;2022-09-09T05:38:07;3.75;;;3.10;;
48263;SDS011;34086;51.076;13.722;2022-09-09T05:39:08;5.00;;;2.85;;
48263;SDS011;34086;51.076;13.722;2022-09-09T05:40:09;3.33;;;2.90;;
48263;SDS011;34086;51.076;13.722;2022-09-09T05:41:10;5.40;;;2.88;;
48263;SDS011;34086;51.076;13.722;2022-09-09T05:42:12;4.72;;;2.92;;
48263;SDS011;34086;51.076;13.722;2022-09-09T05:43:12;4.93;;;2.88;;
48263;SDS011;34086;51.076;13.722;2022-09-09T05:44:14;3.63;;;2.72;;
48263;SDS011;34086;51.076;13.722;2022-09-09T05:45:23;4.25;;;2.97;;
48263;SDS011;34086;51.076;13.722;2022-09-09T05:46:24;4.53;;;2.97;;
48263;SDS011;34086;51.076;13.722;2022-09-09T05:47:27;4.07;;;2.78;;
48263;SDS011;34086;51.076;13.722;2022-09-09T05:48:29;5.90;;;3.30;;
48263;SDS011;34086;51.076;13.722;2022-09-09T05:49:34;3.67;;;3.35;;
48263;SDS011;34086;51.076;13.722;2022-09-09T05:50:35;7.20;;;3.30;;
48263;SDS011;34086;51.076;13.722;2022-09-09T05:51:36;5.95;;;3.08;;
48263;SDS011;34086;51.076;13.722;2022-09-09T05:52:42;4.65;;;3.35;;
48263;SDS011;34086;51.076;13.722;2022-09-09T05:53:44;8.25;;;3.40;;
48263;SDS011;34086;51.076;13.722;2022-09-09T05:54:46;6.78;;;3.30;;
48263;SDS011;34086;51.076;13.722;2022-09-09T05:55:47;6.55;;;3.40;;
48263;SDS011;34086;51.076;13.722;2022-09-09T05:56:48;4.82;;;3.22;;
48263;SDS011;34086;51.076;13.722;2022-09-09T05:57:50;6.53;;;3.30;;
48263;SDS011;34086;51.076;13.722;2022-09-09T05:58:52;4.40;;;3.35;;
48263;SDS011;34086;51.076;13.722;2022-09-09T05:59:54;7.65;;;3.83;;
48263;SDS011;34086;51.076;13.722;2022-09-09T06:01:05;6.40;;;3.33;;
48263;SDS011;34086;51.076;13.722;2022-09-09T06:02:08;6.78;;;3.60;;
48263;SDS011;34086;51.076;13.722;2022-09-09T06:03:11;5.75;;;3.40;;
48263;SDS011;34086;51.076;13.722;2022-09-09T06:04:12;4.53;;;3.20;;
48263;SDS011;34086;51.076;13.722;2022-09-09T06:05:14;5.15;;;3.33;;
48263;SDS011;34086;51.076;13.722;2022-09-09T06:06:16;5.50;;;3.25;;
48263;SDS011;34086;51.076;13.722;2022-09-09T06:07:21;5.25;;;3.05;;
48263;SDS011;34086;51.076;13.722;2022-09-09T06:08:21;7.00;;;3.35;;
48263;SDS011;34086;51.076;13.722;2022-09-09T06:09:22;5.38;;;3.30;;
48263;SDS011;34086;51.076;13.722;2022-09-09T06:10:23;6.32;;;3.47;;
48263;SDS011;34086;51.076;13.722;2022-09-09T06:11:27;6.80;;;3.80;;
48263;SDS011;34086;51.076;13.722;2022-09-09T06:12:33;5.40;;;3.30;;
48263;SDS011;34086;51.076;13.722;2022-09-09T06:13:36;3.90;;;3.00;;
48263;SDS011;34086;51.076;13.722;2022-09-09T06:14:39;6.60;;;3.30;;
48263;SDS011;34086;51.076;13.722;2022-09-09T06:15:48;4.13;;;3.00;;
48263;SDS011;34086;51.076;13.722;2022-09-09T06:16:52;5.97;;;3.10;;
48263;SDS011;34086;51.076;13.722;2022-09-09T06:17:56;5.97;;;3.20;;
48263;SDS011;34086;51.076;13.722;2022-09-09T06:18:57;8.15;;;3.17;;
48263;SDS011;34086;51.076;13.722;2022-09-09T06:20:00;4.95;;;3.00;;
48263;SDS011;34086;51.076;13.722;2022-09-09T06:21:05;4.47;;;3.08;;
48263;SDS011;34086;51.076;13.722;2022-09-09T06:22:09;4.38;;;2.70;;
48263;SDS011;34086;51.076;13.722;2022-09-09T06:23:13;4.22;;;3.00;;
48263;SDS011;34086;51.076;13.722;2022-09-09T06:24:13;4.63;;;2.90;;
48263;SDS011;34086;51.076;13.722;2022-09-09T06:25:17;4.88;;;2.95;;
48263;SDS011;34086;51.076;13.722;2022-09-09T06:26:19;4.53;;;2.80;;
48263;SDS011;34086;51.076;13.722;2022-09-09T06:27:23;6.28;;;2.95;;
48263;SDS011;34086;51.076;13.722;2022-09-09T06:28:24;3.53;;;2.80;;
48263;SDS011;34086;51.076;13.722;2022-09-09T06:29:25;3.83;;;2.90;;
48263;SDS011;34086;51.076;13.722;2022-09-09T06:30:27;5.15;;;2.95;;
48263;SDS011;34086;51.076;13.722;2022-09-09T06:31:28;3.00;;;2.70;;
48263;SDS011;34086;51.076;13.722;2022-09-09T06:32:38;4.40;;;3.10;;
48263;SDS011;34086;51.076;13.722;2022-09-09T06:33:40;4.38;;;2.88;;
48263;SDS011;34086;51.076;13.722;2022-09-09T06:34:42;4.45;;;2.90;;
48263;SDS011;34086;51.076;13.722;2022-09-09T06:35:50;3.38;;;2.67;;
48263;SDS011;34086;51.076;13.722;2022-09-09T06:36:54;5.50;;;3.10;;
48263;SDS011;34086;51.076;13.722;2022-09-09T06:37:57;4.78;;;3.10;;
48263;SDS011;34086;51.076;13.722;2022-09-09T06:39:02;6.07;;;2.80;;
48263;SDS011;34086;51.076;13.722;2022-09-09T06:40:04;4.40;;;3.10;;
48263;SDS011;34086;51.076;13.722;2022-09-09T06:41:05;4.43;;;2.90;;
48263;SDS011;34086;51.076;13.722;2022-09-09T06:42:08;5.28;;;3.20;;
48263;SDS011;34086;51.076;13.722;2022-09-09T06:43:27;3.65;;;2.90;;
48263;SDS011;34086;51.076;13.722;2022-09-09T06:44:29;3.58;;;2.92;;
48263;SDS011;34086;51.076;13.722;2022-09-09T06:45:32;3.70;;;2.95;;
48263;SDS011;34086;51.076;13.722;2022-09-09T06:46:33;6.32;;;2.92;;
48263;SDS011;34086;51.076;13.722;2022-09-09T06:47:34;4.97;;;2.92;;
48263;SDS011;34086;51.076;13.722;2022-09-09T06:48:35;3.78;;;2.75;;
48263;SDS011;34086;51.076;13.722;2022-09-09T06:49:36;4.20;;;2.90;;
48263;SDS011;34086;51.076;13.722;2022-09-09T06:50:41;5.22;;;2.90;;
48263;SDS011;34086;51.076;13.722;2022-09-09T06:51:41;5.35;;;2.97;;
48263;SDS011;34086;51.076;13.722;2022-09-09T06:52:47;3.85;;;2.75;;
48263;SDS011;34086;51.076;13.722;2022-09-09T06:53:51;4.10;;;2.80;;
48263;SDS011;34086;51.076;13.722;2022-09-09T06:54:54;5.68;;;3.20;;
48263;SDS011;34086;51.076;13.722;2022-09-09T06:55:55;3.72;;;2.92;;
48263;SDS011;34086;51.076;13.722;2022-09-09T06:56:56;4.50;;;2.83;;
48263;SDS011;34086;51.076;13.722;2022-09-09T06:58:01;5.97;;;2.80;;
48263;SDS011;34086;51.076;13.722;2022-09-09T06:59:03;4.82;;;3.00;;
48263;SDS011;34086;51.076;13.722;2022-09-09T07:00:09;4.60;;;2.80;;
48263;SDS011;34086;51.076;13.722;2022-09-09T07:01:12;6.78;;;3.20;;
48263;SDS011;34086;51.076;13.722;2022-09-09T07:02:14;5.85;;;3.10;;
48263;SDS011;34086;51.076;13.722;2022-09-09T07:03:15;9.85;;;2.92;;
48263;SDS011;34086;51.076;13.722;2022-09-09T07:04:15;10.45;;;3.53;;
48263;SDS011;34086;51.076;13.722;2022-09-09T07:05:18;16.42;;;3.20;;
48263;SDS011;34086;51.076;13.722;2022-09-09T07:06:24;23.23;;;4.03;;